createdAt,value
2024-04-17T00:02:05.888Z,18.80
2024-04-17T00:04:33.449Z,17.10
2024-04-17T00:07:05.763Z,17.30
2024-04-17T00:09:33.171Z,15.10
2024-04-17T00:12:00.491Z,15.80
2024-04-17T00:14:27.811Z,15.00
2024-04-17T00:16:55.582Z,17.30
2024-04-17T00:19:23.333Z,13.70
2024-04-17T00:21:50.992Z,13.90
2024-04-17T00:24:20.471Z,12.10
2024-04-17T00:26:47.835Z,13.10
2024-04-17T00:29:15.187Z,15.90
2024-04-17T00:31:42.848Z,13.50
2024-04-17T00:34:10.671Z,15.20
2024-04-17T00:36:37.975Z,15.30
2024-04-17T00:39:05.633Z,16.00
2024-04-17T00:41:36.490Z,11.90
2024-04-17T00:44:03.964Z,13.10
2024-04-17T00:46:32.289Z,10.50
2024-04-17T00:48:59.626Z,9.60
2024-04-17T00:51:26.923Z,14.40
2024-04-17T00:53:54.254Z,11.60
2024-04-17T00:56:21.730Z,10.80
2024-04-17T00:58:49.088Z,9.20
2024-04-17T01:01:16.827Z,9.10
2024-04-17T01:03:44.451Z,9.10
2024-04-17T01:06:11.992Z,7.70
2024-04-17T01:08:39.328Z,7.80
2024-04-17T01:11:07.014Z,10.40
2024-04-17T01:13:34.586Z,8.60
2024-04-17T01:16:02.106Z,9.10
2024-04-17T01:18:29.747Z,8.20
2024-04-17T01:20:59.473Z,12.80
2024-04-17T01:23:26.783Z,12.60
2024-04-17T01:25:54.477Z,12.20
2024-04-17T01:28:22.230Z,10.70
2024-04-17T01:30:49.905Z,12.50
2024-04-17T01:33:18.244Z,12.90
2024-04-17T01:35:46.124Z,11.60
2024-04-17T01:38:13.720Z,9.80
2024-04-17T01:40:41.068Z,11.60
2024-04-17T01:43:11.697Z,11.30
2024-04-17T01:45:43.110Z,10.30
2024-04-17T01:48:10.561Z,13.80
2024-04-17T01:50:39.368Z,16.20
2024-04-17T01:53:06.690Z,11.80
2024-04-17T01:55:34.348Z,11.50
2024-04-17T01:58:02.278Z,10.20
2024-04-17T02:00:29.790Z,9.30
2024-04-17T02:02:57.365Z,7.60
2024-04-17T02:05:24.793Z,11.30
2024-04-17T02:07:52.255Z,12.90
2024-04-17T02:10:19.719Z,15.40
2024-04-17T02:12:47.069Z,13.50
2024-04-17T02:15:14.482Z,14.10
2024-04-17T02:17:42.041Z,16.40
2024-04-17T02:20:09.687Z,12.00
2024-04-17T02:22:37.047Z,11.60
2024-04-17T02:25:04.825Z,10.60
2024-04-17T02:27:32.148Z,12.40
2024-04-17T02:29:59.493Z,11.40
2024-04-17T02:32:27.562Z,11.70
2024-04-17T02:34:55.933Z,13.40
2024-04-17T02:37:23.612Z,11.30
2024-04-17T02:39:51.034Z,13.20
2024-04-17T02:42:18.513Z,13.30
2024-04-17T02:44:46.659Z,13.40
2024-04-17T02:47:14.208Z,11.50
2024-04-17T02:49:42.842Z,12.80
2024-04-17T02:52:10.359Z,10.80
2024-04-17T02:54:37.790Z,9.80
2024-04-17T02:57:07.580Z,9.20
2024-04-17T02:59:35.068Z,8.90
2024-04-17T03:02:02.462Z,8.40
2024-04-17T03:04:29.874Z,9.80
2024-04-17T03:06:57.297Z,11.00
2024-04-17T03:09:24.939Z,8.50
2024-04-17T03:11:52.931Z,12.00
2024-04-17T03:14:20.494Z,8.60
2024-04-17T03:16:48.482Z,10.70
2024-04-17T03:19:16.139Z,11.90
2024-04-17T03:21:43.502Z,10.40
2024-04-17T03:24:11.324Z,13.30
2024-04-17T03:26:39.089Z,12.30
2024-04-17T03:29:06.460Z,14.00
2024-04-17T03:31:34.089Z,16.20
2024-04-17T03:34:01.420Z,13.50
2024-04-17T03:36:28.973Z,13.40
2024-04-17T03:38:56.691Z,15.20
2024-04-17T03:41:24.599Z,13.30
2024-04-17T03:43:51.953Z,15.00
2024-04-17T03:46:19.397Z,10.80
2024-04-17T03:48:46.774Z,13.40
2024-04-17T03:51:14.177Z,11.90
2024-04-17T03:53:41.675Z,11.00
2024-04-17T03:56:08.963Z,9.80
2024-04-17T03:58:37.117Z,9.10
2024-04-17T04:01:04.489Z,11.00
2024-04-17T04:03:32.035Z,13.80
2024-04-17T04:06:00.382Z,14.70
2024-04-17T04:08:28.104Z,10.20
2024-04-17T04:10:55.605Z,11.80
2024-04-17T04:13:25.205Z,12.70
2024-04-17T04:15:52.937Z,14.10
2024-04-17T04:18:22.841Z,16.00
2024-04-17T04:20:50.772Z,11.60
2024-04-17T04:23:18.248Z,14.30
2024-04-17T04:25:45.922Z,13.50
2024-04-17T04:28:13.440Z,15.80
2024-04-17T04:30:42.317Z,20.50
2024-04-17T04:33:09.994Z,19.40
2024-04-17T04:35:37.896Z,19.80
2024-04-17T04:38:05.466Z,17.30
2024-04-17T04:40:33.701Z,19.50
2024-04-17T04:43:01.152Z,15.90
2024-04-17T04:45:29.569Z,23.10
2024-04-17T04:47:57.079Z,19.60
2024-04-17T04:50:24.732Z,18.40
2024-04-17T04:52:52.333Z,19.60
2024-04-17T04:55:19.930Z,16.70
2024-04-17T04:57:48.686Z,21.50
2024-04-17T05:00:16.263Z,28.10
2024-04-17T05:02:43.645Z,22.50
2024-04-17T05:05:11.596Z,17.80
2024-04-17T05:07:39.547Z,18.40
2024-04-17T05:10:07.097Z,16.30
2024-04-17T05:12:34.554Z,14.60
2024-04-17T05:15:02.154Z,13.40
2024-04-17T05:17:29.792Z,11.20
2024-04-17T05:19:57.378Z,15.60
2024-04-17T05:22:24.875Z,18.50
2024-04-17T05:24:52.276Z,21.20
2024-04-17T05:27:19.748Z,15.00
2024-04-17T05:29:47.460Z,9.50
2024-04-17T05:32:15.305Z,9.30
2024-04-17T05:34:42.764Z,7.50
2024-04-17T05:37:10.969Z,8.00
2024-04-17T05:39:38.261Z,8.60
2024-04-17T05:42:06.527Z,8.00
2024-04-17T05:44:34.372Z,7.70
2024-04-17T05:47:01.988Z,7.90
2024-04-17T05:49:29.701Z,9.30
2024-04-17T05:51:57.624Z,7.80
2024-04-17T05:54:24.961Z,8.30
2024-04-17T05:56:52.454Z,17.00
2024-04-17T05:59:19.850Z,15.60
2024-04-17T06:01:47.168Z,22.80
2024-04-17T06:04:14.589Z,20.20
2024-04-17T06:06:42.085Z,18.10
2024-04-17T06:09:09.443Z,15.40
2024-04-17T06:11:36.798Z,18.60
2024-04-17T06:14:07.190Z,18.30
2024-04-17T06:16:36.352Z,19.30
2024-04-17T06:19:03.872Z,20.00
2024-04-17T06:21:31.843Z,14.80
2024-04-17T06:23:59.276Z,22.90
2024-04-17T06:26:26.727Z,19.80
2024-04-17T06:28:54.236Z,17.80
2024-04-17T06:31:22.409Z,19.80
2024-04-17T06:33:49.757Z,14.60
2024-04-17T06:36:17.097Z,16.10
2024-04-17T06:38:46.494Z,12.10
2024-04-17T06:41:15.593Z,12.90
2024-04-17T06:43:43.299Z,8.90
2024-04-17T06:46:12.704Z,9.10
2024-04-17T06:48:40.080Z,10.40
2024-04-17T06:51:07.450Z,9.90
2024-04-17T06:53:34.783Z,8.60
2024-04-17T06:56:02.296Z,9.90
2024-04-17T06:58:29.820Z,9.30
2024-04-17T07:00:57.733Z,9.90
2024-04-17T07:03:25.297Z,9.70
2024-04-17T07:05:52.703Z,8.70
2024-04-17T07:08:20.223Z,8.50
2024-04-17T07:10:47.625Z,8.00
2024-04-17T07:13:15.217Z,8.80
2024-04-17T07:15:43.898Z,9.70
2024-04-17T07:18:11.400Z,10.80
2024-04-17T07:20:38.807Z,7.80
2024-04-17T07:23:06.242Z,8.50
2024-04-17T07:25:33.696Z,9.60
2024-04-17T07:28:01.057Z,9.10
2024-04-17T07:30:28.407Z,7.90
2024-04-17T07:32:58.493Z,7.70
2024-04-17T07:35:26.891Z,9.40
2024-04-17T07:37:54.208Z,10.40
2024-04-17T07:40:22.714Z,10.20
2024-04-17T07:42:50.151Z,9.10
2024-04-17T07:45:17.843Z,9.90
2024-04-17T07:47:46.285Z,8.00
2024-04-17T07:50:13.813Z,9.70
2024-04-17T07:52:41.509Z,10.70
2024-04-17T07:55:08.931Z,8.60
2024-04-17T07:57:36.428Z,10.50
2024-04-17T08:00:03.758Z,9.10
2024-04-17T08:02:32.260Z,8.50
2024-04-17T08:04:59.925Z,8.80
2024-04-17T08:07:27.585Z,9.70
2024-04-17T08:09:55.169Z,8.80
2024-04-17T08:12:22.613Z,9.20
2024-04-17T08:14:49.978Z,8.50
2024-04-17T08:17:17.516Z,9.50
2024-04-17T08:19:45.060Z,9.60
2024-04-17T08:22:13.623Z,9.30
2024-04-17T08:24:41.245Z,10.00
2024-04-17T08:27:09.168Z,11.40
2024-04-17T08:29:36.590Z,9.00
2024-04-17T08:32:03.963Z,7.90
2024-04-17T08:34:31.511Z,9.70
2024-04-17T08:37:00.792Z,9.60
2024-04-17T08:39:28.302Z,10.30
2024-04-17T08:41:55.752Z,10.40
2024-04-17T08:44:23.161Z,10.50
2024-04-17T08:46:50.723Z,12.00
2024-04-17T08:49:18.263Z,8.60
2024-04-17T08:51:46.818Z,11.00
2024-04-17T08:54:14.181Z,10.70
2024-04-17T08:56:42.260Z,10.00
2024-04-17T08:59:09.778Z,8.50
2024-04-17T09:01:37.221Z,9.50
2024-04-17T09:04:04.972Z,12.50
2024-04-17T09:06:32.228Z,15.10
2024-04-17T09:08:59.672Z,10.70
2024-04-17T09:11:27.355Z,11.70
2024-04-17T09:13:55.202Z,11.40
2024-04-17T09:16:22.543Z,9.70
2024-04-17T09:18:50.041Z,10.10
2024-04-17T09:21:17.479Z,5.90
2024-04-17T09:23:45.001Z,5.40
2024-04-17T09:26:14.741Z,4.60
2024-04-17T09:28:42.197Z,8.00
2024-04-17T09:31:09.583Z,5.80
2024-04-17T09:33:37.030Z,6.70
2024-04-17T09:36:04.918Z,7.10
2024-04-17T09:38:32.295Z,6.80
2024-04-17T09:40:59.744Z,7.10
2024-04-17T09:43:29.704Z,8.10
2024-04-17T09:45:58.781Z,8.20
2024-04-17T09:48:26.296Z,8.60
2024-04-17T09:50:53.551Z,7.90
2024-04-17T09:53:31.377Z,8.90
2024-04-17T09:56:04.074Z,11.60
2024-04-17T09:58:33.556Z,9.00
2024-04-17T10:01:01.771Z,9.20
2024-04-17T10:03:29.379Z,6.60
2024-04-17T10:05:57.097Z,8.10
2024-04-17T10:08:24.454Z,8.10
2024-04-17T10:10:52.273Z,6.60
2024-04-17T10:13:19.756Z,7.80
2024-04-17T10:15:47.112Z,6.60
2024-04-17T10:18:15.891Z,7.80
2024-04-17T10:20:46.170Z,8.00
2024-04-17T10:23:13.461Z,7.40
2024-04-17T10:25:41.045Z,8.90
2024-04-17T10:28:08.358Z,7.40
2024-04-17T10:30:35.748Z,7.80
2024-04-17T10:33:03.489Z,7.70
2024-04-17T10:35:33.728Z,8.60
2024-04-17T10:38:04.625Z,8.30
2024-04-17T10:40:32.209Z,6.50
2024-04-17T10:43:00.038Z,6.30
2024-04-17T10:45:29.005Z,5.40
2024-04-17T10:47:57.763Z,7.00
2024-04-17T10:50:25.313Z,6.90
2024-04-17T10:52:53.455Z,7.00
2024-04-17T10:55:22.930Z,6.40
2024-04-17T10:57:50.332Z,6.20
2024-04-17T11:00:17.645Z,7.00
2024-04-17T11:02:45.123Z,6.40
2024-04-17T11:05:12.638Z,5.70
2024-04-17T11:07:40.054Z,5.70
2024-04-17T11:10:07.712Z,6.20
2024-04-17T11:12:35.104Z,5.90
2024-04-17T11:15:03.255Z,6.70
2024-04-17T11:17:30.866Z,6.80
2024-04-17T11:19:58.719Z,6.30
2024-04-17T11:22:26.293Z,6.20
2024-04-17T11:24:59.064Z,6.50
2024-04-17T11:27:26.502Z,5.60
2024-04-17T11:29:54.077Z,8.10
2024-04-17T11:32:21.683Z,5.90
2024-04-17T11:34:49.252Z,4.40
2024-04-17T11:37:16.597Z,6.20
2024-04-17T11:39:47.697Z,6.00
2024-04-17T11:42:16.612Z,5.80
2024-04-17T11:44:44.249Z,7.30
2024-04-17T11:47:11.959Z,7.40
2024-04-17T11:49:39.537Z,7.20
2024-04-17T11:52:06.937Z,7.90
2024-04-17T11:54:34.249Z,6.50
2024-04-17T11:57:04.591Z,10.70
2024-04-17T11:59:32.066Z,6.90
2024-04-17T12:01:59.806Z,9.60
2024-04-17T12:04:30.965Z,8.20
2024-04-17T12:06:59.540Z,9.20
2024-04-17T12:09:31.084Z,8.70
2024-04-17T12:11:59.132Z,7.40
2024-04-17T12:14:26.815Z,7.30
2024-04-17T12:16:54.166Z,7.40
2024-04-17T12:19:21.618Z,8.40
2024-04-17T12:21:48.974Z,6.90
2024-04-17T12:24:22.755Z,10.20
2024-04-17T12:26:53.186Z,8.50
2024-04-17T12:29:20.822Z,7.90
2024-04-17T12:31:48.525Z,10.30
2024-04-17T12:34:15.992Z,8.40
2024-04-17T12:36:43.572Z,10.30
2024-04-17T12:39:13.993Z,6.80
2024-04-17T12:41:41.271Z,8.40
2024-04-17T12:44:08.847Z,8.40
2024-04-17T12:46:36.501Z,8.90
2024-04-17T12:49:07.112Z,9.90
2024-04-17T12:51:34.550Z,9.50
2024-04-17T12:54:01.924Z,6.90
2024-04-17T12:56:29.277Z,8.50
2024-04-17T12:58:57.119Z,9.30
2024-04-17T13:01:24.507Z,9.60
2024-04-17T13:03:52.020Z,8.80
2024-04-17T13:06:19.821Z,10.00
2024-04-17T13:08:47.176Z,13.90
2024-04-17T13:11:15.586Z,11.80
2024-04-17T13:13:43.412Z,8.70
2024-04-17T13:16:11.011Z,9.50
2024-04-17T13:18:39.978Z,13.30
2024-04-17T13:21:07.853Z,12.10
2024-04-17T13:23:35.525Z,12.00
2024-04-17T13:26:03.163Z,14.80
2024-04-17T13:28:34.224Z,11.00
2024-04-17T13:31:04.254Z,14.00
2024-04-17T13:33:31.765Z,12.30
2024-04-17T13:35:59.642Z,13.80
2024-04-17T13:38:26.979Z,10.40
2024-04-17T13:40:54.366Z,10.40
2024-04-17T13:43:22.236Z,9.70
2024-04-17T13:45:49.838Z,12.00
2024-04-17T13:48:17.337Z,10.70
2024-04-17T13:50:45.244Z,11.20
2024-04-17T13:53:12.839Z,11.50
2024-04-17T13:55:40.379Z,8.10
2024-04-17T13:58:07.761Z,9.50
2024-04-17T14:00:35.422Z,8.40
2024-04-17T14:03:05.249Z,7.40
2024-04-17T14:05:32.681Z,9.10
2024-04-17T14:08:00.674Z,8.00
2024-04-17T14:10:30.184Z,9.00
2024-04-17T14:12:58.298Z,8.30
2024-04-17T14:15:26.098Z,9.10
2024-04-17T14:17:53.453Z,9.40
2024-04-17T14:20:20.777Z,9.30
2024-04-17T14:22:48.177Z,14.20
2024-04-17T14:25:15.620Z,13.50
2024-04-17T14:27:43.034Z,11.30
2024-04-17T14:30:11.196Z,11.30
2024-04-17T14:32:38.942Z,10.70
2024-04-17T14:35:07.022Z,6.30
2024-04-17T14:37:34.478Z,9.60
2024-04-17T14:40:02.649Z,11.90
2024-04-17T14:42:29.973Z,9.90
2024-04-17T14:45:00.625Z,10.60
2024-04-17T14:47:28.587Z,8.90
2024-04-17T14:49:57.126Z,11.30
2024-04-17T14:52:24.729Z,7.80
2024-04-17T14:54:52.232Z,8.30
2024-04-17T14:57:20.716Z,10.50
2024-04-17T14:59:48.185Z,13.10
2024-04-17T15:02:18.009Z,11.60
2024-04-17T15:04:45.474Z,10.90
2024-04-17T15:07:12.929Z,11.70
2024-04-17T15:09:40.835Z,12.80
2024-04-17T15:12:08.248Z,10.30
2024-04-17T15:14:37.241Z,10.60
2024-04-17T15:17:04.585Z,10.00
2024-04-17T15:19:33.290Z,10.30
2024-04-17T15:22:01.104Z,11.60
2024-04-17T15:24:28.577Z,16.80
2024-04-17T15:26:58.597Z,13.80
2024-04-17T15:29:25.945Z,12.10
2024-04-17T15:31:53.281Z,9.80
2024-04-17T15:34:20.855Z,11.50
2024-04-17T15:36:48.285Z,10.80
2024-04-17T15:39:15.682Z,12.50
2024-04-17T15:41:43.547Z,17.10
2024-04-17T15:44:10.964Z,12.50
2024-04-17T15:46:38.525Z,17.90
2024-04-17T15:49:05.987Z,14.20
2024-04-17T15:51:33.554Z,11.00
2024-04-17T15:54:01.046Z,11.80
2024-04-17T15:56:28.928Z,11.00
2024-04-17T15:58:56.390Z,10.60
2024-04-17T16:01:24.000Z,13.60
2024-04-17T16:03:53.009Z,15.50
2024-04-17T16:06:22.880Z,13.60
2024-04-17T16:08:51.667Z,12.90
2024-04-17T16:11:23.610Z,13.80
2024-04-17T16:13:51.470Z,11.90
2024-04-17T16:16:19.351Z,13.90
2024-04-17T16:18:47.136Z,11.00
2024-04-17T16:21:15.341Z,13.10
2024-04-17T16:23:43.190Z,26.10
2024-04-17T16:26:10.672Z,17.20
2024-04-17T16:28:38.766Z,14.10
2024-04-17T16:31:09.249Z,17.10
2024-04-17T16:33:38.522Z,17.20
2024-04-17T16:36:05.962Z,17.00
2024-04-17T16:38:33.580Z,16.90
2024-04-17T16:41:03.292Z,12.80
2024-04-17T16:43:30.640Z,13.70
2024-04-17T16:45:57.896Z,15.50
2024-04-17T16:48:25.380Z,22.40
2024-04-17T16:50:52.779Z,13.50
2024-04-17T16:53:20.358Z,23.10
2024-04-17T16:55:47.877Z,19.50
2024-04-17T16:58:16.220Z,12.60
2024-04-17T17:00:43.584Z,18.50
2024-04-17T17:03:11.429Z,18.40
2024-04-17T17:05:39.058Z,21.60
2024-04-17T17:08:07.520Z,28.30
2024-04-17T17:10:34.944Z,25.00
2024-04-17T17:13:02.994Z,17.90
2024-04-17T17:15:31.291Z,16.10
2024-04-17T17:17:59.154Z,15.50
2024-04-17T17:20:26.490Z,17.50
2024-04-17T17:22:54.371Z,21.20
2024-04-17T17:25:22.160Z,23.90
2024-04-17T17:27:49.477Z,25.70
2024-04-17T17:30:16.882Z,21.10
2024-04-17T17:32:44.592Z,23.90
2024-04-17T17:35:12.013Z,24.90
2024-04-17T17:37:39.417Z,21.30
2024-04-17T17:40:07.157Z,19.90
2024-04-17T17:42:34.891Z,22.10
2024-04-17T17:45:02.924Z,43.90
2024-04-17T17:47:30.709Z,48.10
2024-04-17T17:49:58.421Z,34.40
2024-04-17T17:52:27.319Z,31.00
2024-04-17T17:54:57.993Z,18.60
2024-04-17T17:57:25.452Z,12.10
2024-04-17T17:59:53.156Z,10.60
2024-04-17T18:02:20.731Z,10.10
2024-04-17T18:04:48.608Z,9.20
2024-04-17T18:07:16.575Z,7.40
2024-04-17T18:09:44.409Z,34.50
2024-04-17T18:12:14.665Z,12.50
2024-04-17T18:14:42.354Z,19.90
2024-04-17T18:17:09.898Z,13.30
2024-04-17T18:19:37.371Z,8.40
2024-04-17T18:22:05.019Z,10.00
2024-04-17T18:24:32.419Z,9.30
2024-04-17T18:26:59.893Z,9.20
2024-04-17T18:29:27.188Z,8.60
2024-04-17T18:31:54.925Z,13.00
2024-04-17T18:34:22.602Z,11.60
2024-04-17T18:36:53.113Z,11.40
2024-04-17T18:39:20.583Z,14.00
2024-04-17T18:41:48.632Z,13.00
2024-04-17T18:44:16.399Z,9.60
2024-04-17T18:46:49.311Z,11.00
2024-04-17T18:49:16.717Z,24.00
2024-04-17T18:51:45.649Z,25.60
2024-04-17T18:54:13.271Z,17.00
2024-04-17T18:56:40.639Z,12.40
2024-04-17T18:59:08.070Z,10.20
2024-04-17T19:01:35.619Z,11.80
2024-04-17T19:04:03.232Z,11.50
2024-04-17T19:06:31.112Z,11.80
2024-04-17T19:08:59.376Z,9.30
2024-04-17T19:11:26.671Z,7.90
2024-04-17T19:13:54.269Z,16.40
2024-04-17T19:16:22.215Z,13.90
2024-04-17T19:18:50.192Z,12.70
2024-04-17T19:21:18.214Z,10.60
2024-04-17T19:23:48.942Z,8.70
2024-04-17T19:26:17.408Z,8.70
2024-04-17T19:28:45.360Z,10.30
2024-04-17T19:31:13.485Z,10.30
2024-04-17T19:33:41.013Z,10.50
2024-04-17T19:36:09.684Z,16.90
2024-04-17T19:38:38.129Z,13.80
2024-04-17T19:41:07.268Z,12.60
2024-04-17T19:43:34.977Z,9.70
2024-04-17T19:46:02.638Z,10.00
2024-04-17T19:48:30.787Z,9.10
2024-04-17T19:50:59.229Z,8.80
2024-04-17T19:53:26.957Z,7.70
2024-04-17T19:55:54.465Z,11.40
2024-04-17T19:58:22.419Z,10.10
2024-04-17T20:00:49.868Z,10.10
2024-04-17T20:03:21.181Z,8.90
2024-04-17T20:05:48.694Z,11.10
2024-04-17T20:08:16.441Z,11.20
2024-04-17T20:10:43.723Z,12.70
2024-04-17T20:13:13.407Z,46.40
2024-04-17T20:15:43.024Z,26.60
2024-04-17T20:18:14.605Z,16.90
2024-04-17T20:20:42.587Z,10.00
2024-04-17T20:23:09.978Z,9.20
2024-04-17T20:25:37.527Z,10.70
2024-04-17T20:28:05.446Z,10.10
2024-04-17T20:30:33.096Z,13.30
2024-04-17T20:33:01.952Z,30.80
2024-04-17T20:35:29.835Z,48.20
2024-04-17T20:37:57.165Z,31.60
2024-04-17T20:40:25.071Z,20.70
2024-04-17T20:42:52.610Z,14.00
2024-04-17T20:45:20.457Z,11.00
2024-04-17T20:47:48.280Z,8.30
2024-04-17T20:50:15.882Z,15.60
2024-04-17T20:52:43.257Z,12.50
2024-04-17T20:55:10.629Z,11.90
2024-04-17T20:57:38.443Z,14.10
2024-04-17T21:00:06.004Z,16.90
2024-04-17T21:02:33.610Z,11.80
2024-04-17T21:05:02.508Z,10.80
2024-04-17T21:07:31.220Z,9.40
2024-04-17T21:09:58.920Z,8.30
2024-04-17T21:12:26.306Z,9.00
2024-04-17T21:14:53.870Z,8.20
2024-04-17T21:17:21.501Z,8.10
2024-04-17T21:19:49.030Z,9.40
2024-04-17T21:22:16.850Z,9.00
2024-04-17T21:24:44.276Z,9.50
2024-04-17T21:27:11.858Z,8.60
2024-04-17T21:29:40.550Z,8.60
2024-04-17T21:32:07.981Z,8.60
2024-04-17T21:34:35.959Z,9.70
2024-04-17T21:37:03.431Z,7.80
2024-04-17T21:39:31.594Z,8.30
2024-04-17T21:41:58.915Z,8.30
2024-04-17T21:44:26.246Z,9.10
2024-04-17T21:46:55.395Z,7.70
2024-04-17T21:49:22.763Z,9.80
2024-04-17T21:51:50.224Z,7.70
2024-04-17T21:54:20.094Z,9.00
2024-04-17T21:56:47.546Z,9.80
2024-04-17T21:59:14.978Z,10.30
2024-04-17T22:01:45.963Z,7.90
2024-04-17T22:04:14.252Z,8.10
2024-04-17T22:06:43.825Z,8.60
2024-04-17T22:09:11.465Z,10.00
2024-04-17T22:11:38.836Z,16.70
2024-04-17T22:14:06.241Z,15.00
2024-04-17T22:16:33.535Z,13.30
2024-04-17T22:19:00.897Z,15.00
2024-04-17T22:21:28.332Z,42.20
2024-04-17T22:23:56.182Z,21.40
2024-04-17T22:26:23.499Z,15.60
2024-04-17T22:28:50.973Z,13.70
2024-04-17T22:31:18.264Z,30.80
2024-04-17T22:33:45.738Z,27.40
2024-04-17T22:36:13.593Z,19.80
2024-04-17T22:38:40.927Z,18.00
2024-04-17T22:41:08.324Z,12.00
2024-04-17T22:43:35.767Z,12.30
2024-04-17T22:46:03.648Z,9.80
2024-04-17T22:48:31.055Z,9.40
2024-04-17T22:50:58.664Z,10.60
2024-04-17T22:53:26.055Z,10.60
2024-04-17T22:55:53.578Z,9.20
2024-04-17T22:58:20.866Z,8.60
2024-04-17T23:00:48.849Z,9.20
2024-04-17T23:03:16.613Z,9.50
2024-04-17T23:05:44.390Z,8.80
2024-04-17T23:08:11.840Z,6.70
2024-04-17T23:10:39.305Z,9.40
2024-04-17T23:13:08.284Z,8.10
2024-04-17T23:15:35.727Z,7.10
2024-04-17T23:18:03.174Z,7.00
2024-04-17T23:20:31.918Z,7.10
2024-04-17T23:22:59.267Z,7.80
2024-04-17T23:25:29.845Z,7.70
2024-04-17T23:27:58.217Z,8.80
2024-04-17T23:30:25.600Z,7.80
2024-04-17T23:32:53.368Z,7.90
2024-04-17T23:35:20.811Z,9.60
2024-04-17T23:37:48.204Z,9.90
2024-04-17T23:40:15.574Z,8.70
2024-04-17T23:42:43.051Z,12.70
2024-04-17T23:45:10.821Z,12.50
2024-04-17T23:47:40.293Z,8.90
2024-04-17T23:50:07.938Z,10.50
2024-04-17T23:52:35.365Z,9.10
2024-04-17T23:55:02.901Z,9.70
2024-04-17T23:57:30.471Z,9.20
2024-04-17T23:59:57.867Z,12.00
